Time;durP1;ratioP1;P1;durP2;ratioP2;P2;SDS_P1;SDS_P2;PMS_P1;PMS_P2;Temp;Humidity;BMP_temperature;BMP_pressure;BME280_temperature;BME280_humidity;BME280_pressure;Samples;Min_cycle;Max_cycle;Signal;HPM_P1;HPM_P2
2021/10/20 00:03:12;;;;;;;7.85;5.90;;;;;;;14.08;100.00;100850.63;10460502;28;20072;-79
2021/10/20 00:08:14;;;;;;;9.07;6.25;;;;;;;14.06;100.00;100846.25;10461587;28;20049;-80
2021/10/20 00:13:16;;;;;;;7.63;6.20;;;;;;;14.11;100.00;100841.06;10461702;28;20075;-80
2021/10/20 00:18:17;;;;;;;7.85;6.07;;;;;;;14.04;100.00;100834.13;10460901;28;20053;-80
2021/10/20 00:23:19;;;;;;;7.97;5.85;;;;;;;14.20;99.77;100820.25;10461100;28;20045;-80
2021/10/20 00:28:20;;;;;;;6.93;5.95;;;;;;;14.06;100.00;100825.44;10460046;28;20063;-80
2021/10/20 00:33:22;;;;;;;8.73;6.45;;;;;;;13.94;100.00;100827.19;10459642;28;20056;-79
2021/10/20 00:38:25;;;;;;;7.57;5.95;;;;;;;13.95;100.00;100815.91;10459777;28;20116;-80
2021/10/20 00:43:27;;;;;;;7.40;5.30;;;;;;;14.11;98.43;100807.25;10459734;28;20045;-80
2021/10/20 00:48:29;;;;;;;6.65;5.40;;;;;;;14.40;95.26;100791.59;10462770;28;20048;-81
2021/10/20 00:53:31;;;;;;;11.95;5.78;;;;;;;14.22;96.29;100789.88;10460600;28;20052;-82
2021/10/20 00:58:32;;;;;;;7.68;5.13;;;;;;;14.49;94.26;100777.75;10480197;28;20049;-81
2021/10/20 01:03:34;;;;;;;6.18;5.18;;;;;;;13.98;98.82;100774.31;10480452;28;20060;-80
2021/10/20 01:08:36;;;;;;;7.78;5.60;;;;;;;14.15;97.54;100764.75;10458128;28;20056;-80
2021/10/20 01:13:37;;;;;;;8.98;5.45;;;;;;;14.37;95.36;100769.94;10461936;28;20528;-80
2021/10/20 01:18:39;;;;;;;7.72;5.95;;;;;;;14.11;97.65;100749.13;10458110;28;20043;-79
2021/10/20 01:23:41;;;;;;;6.68;5.28;;;;;;;14.31;94.50;100740.44;10471560;28;20106;-81
2021/10/20 01:28:44;;;;;;;7.57;5.07;;;;;;;14.15;96.47;100741.34;10486124;28;20107;-79
2021/10/20 01:33:45;;;;;;;6.75;5.03;;;;;;;14.17;96.29;100718.78;10459445;28;20057;-79
2021/10/20 01:38:50;;;;;;;7.15;5.47;;;;;;;14.20;95.76;100720.53;10457009;28;20067;-79
2021/10/20 01:43:52;;;;;;;8.82;5.70;;;;;;;14.22;95.84;100710.97;10456863;28;20064;-79
2021/10/20 01:48:53;;;;;;;13.15;5.53;;;;;;;14.09;96.26;100698.84;10464822;28;20052;-79
2021/10/20 01:53:55;;;;;;;6.15;5.18;;;;;;;14.12;95.61;100696.22;10460904;28;20411;-79
2021/10/20 01:58:57;;;;;;;8.27;5.60;;;;;;;14.25;94.87;100698.81;10457936;28;20041;-80
2021/10/20 02:03:58;;;;;;;10.35;5.25;;;;;;;14.41;93.46;100688.34;10455885;28;20048;-80
2021/10/20 02:09:00;;;;;;;10.30;5.65;;;;;;;14.05;96.35;100693.66;10455482;28;20049;-79
2021/10/20 02:14:03;;;;;;;5.85;3.72;;;;;;;14.26;94.03;100676.25;10457294;28;20049;-81
2021/10/20 02:19:04;;;;;;;5.88;4.90;;;;;;;14.19;94.82;100677.16;10455716;28;20052;-80
2021/10/20 02:24:06;;;;;;;7.22;5.10;;;;;;;14.03;96.26;100669.38;10457480;28;20061;-79
2021/10/20 02:29:07;;;;;;;7.05;5.55;;;;;;;13.97;96.56;100671.13;10455177;28;20536;-79
2021/10/20 02:34:09;;;;;;;7.55;5.20;;;;;;;14.05;95.45;100658.97;10456281;28;20056;-80
2021/10/20 02:39:11;;;;;;;7.28;5.00;;;;;;;14.06;95.60;100661.56;10454958;28;20055;-80
2021/10/20 02:44:12;;;;;;;8.35;5.32;;;;;;;13.87;97.04;100654.66;10469136;28;20072;-79
2021/10/20 02:49:14;;;;;;;6.75;5.07;;;;;;;14.16;94.39;100638.13;10456698;28;20045;-80
2021/10/20 02:54:15;;;;;;;7.93;4.90;;;;;;;14.01;95.58;100626.91;10455447;28;20094;-80
2021/10/20 02:59:17;;;;;;;7.93;4.60;;;;;;;14.02;94.68;100619.97;10469061;28;20056;-80
2021/10/20 03:04:18;;;;;;;5.65;4.43;;;;;;;14.02;94.86;100627.78;10495518;28;20063;-79
2021/10/20 03:09:20;;;;;;;7.43;4.75;;;;;;;14.04;95.17;100619.09;10458642;28;20051;-80
2021/10/20 03:14:21;;;;;;;7.97;5.03;;;;;;;14.00;95.47;100611.28;10451412;28;20412;-80
2021/10/20 03:19:23;;;;;;;8.90;5.45;;;;;;;13.82;97.11;100619.16;10490343;28;20052;-79
2021/10/20 03:24:24;;;;;;;6.63;5.13;;;;;;;14.06;94.82;100604.31;10468337;28;20067;-79
2021/10/20 03:29:26;;;;;;;7.22;5.88;;;;;;;14.08;94.99;100588.72;10464327;28;20496;-80
2021/10/20 03:34:27;;;;;;;12.77;5.63;;;;;;;14.18;93.55;100585.22;10485200;28;20489;-80
2021/10/20 03:39:29;;;;;;;7.38;4.90;;;;;;;14.06;94.98;100578.31;10453686;28;20060;-80
2021/10/20 03:44:31;;;;;;;10.27;5.90;;;;;;;14.10;94.67;100581.78;10469384;28;20059;-79
2021/10/20 03:49:32;;;;;;;9.93;5.82;;;;;;;14.18;94.60;100577.44;10489607;28;20045;-79
2021/10/20 03:54:34;;;;;;;8.80;6.28;;;;;;;14.10;95.49;100584.38;10453939;28;20056;-79
2021/10/20 03:59:36;;;;;;;11.38;6.38;;;;;;;14.25;93.83;100573.06;10454361;28;20053;-79
2021/10/20 04:04:37;;;;;;;7.55;6.45;;;;;;;14.26;93.38;100570.44;10454423;28;20056;-79
2021/10/20 04:09:39;;;;;;;9.07;6.22;;;;;;;14.12;94.57;100568.75;10454182;28;20048;-79
2021/10/20 04:14:40;;;;;;;7.38;5.85;;;;;;;14.15;94.48;100561.81;10456332;28;20072;-79
2021/10/20 04:19:42;;;;;;;11.32;5.90;;;;;;;14.16;94.89;100547.94;10467258;28;20052;-81
2021/10/20 04:24:44;;;;;;;7.72;6.25;;;;;;;14.10;94.59;100527.16;10465110;28;20040;-79
2021/10/20 04:29:46;;;;;;;9.80;6.28;;;;;;;14.13;94.59;100516.75;10459200;28;20469;-79
2021/10/20 04:34:48;;;;;;;7.80;5.00;;;;;;;14.12;95.29;100519.31;10461458;28;20504;-80
2021/10/20 04:39:56;;;;;;;10.63;6.55;;;;;;;14.49;92.48;100520.03;10459456;28;20052;-80
2021/10/20 04:44:59;;;;;;;8.65;5.30;;;;;;;14.43;93.31;100507.03;10464684;28;20183;-81
2021/10/20 04:50:02;;;;;;;7.95;6.28;;;;;;;14.41;93.91;100500.94;10487313;28;20075;-80
2021/10/20 04:55:05;;;;;;;6.75;5.68;;;;;;;14.42;93.37;100482.75;10465378;28;20118;-80
2021/10/20 05:00:07;;;;;;;10.13;6.22;;;;;;;14.71;91.02;100474.75;10473257;28;20049;-80
2021/10/20 05:05:09;;;;;;;11.75;7.03;;;;;;;14.63;91.40;100460.03;10454529;28;20057;-80
2021/10/20 05:10:11;;;;;;;8.85;6.78;;;;;;;14.52;92.38;100454.91;10462110;28;20049;-80
2021/10/20 05:15:13;;;;;;;8.45;6.47;;;;;;;14.41;92.79;100465.41;10471252;28;20481;-80
2021/10/20 05:20:16;;;;;;;11.73;7.60;;;;;;;14.29;94.20;100455.03;10491343;28;20397;-80
2021/10/20 05:25:19;;;;;;;8.25;6.22;;;;;;;14.30;94.03;100447.25;10458057;28;20453;-80
2021/10/20 05:30:21;;;;;;;8.68;6.25;;;;;;;14.44;93.23;100443.69;10458179;28;20494;-80
2021/10/20 05:35:23;;;;;;;6.85;5.68;;;;;;;14.34;93.37;100437.66;10458413;28;20072;-81
2021/10/20 05:40:25;;;;;;;11.18;6.82;;;;;;;14.31;93.85;100442.91;10456500;28;20063;-80
2021/10/20 05:45:26;;;;;;;11.52;6.85;;;;;;;14.29;94.08;100445.53;10457916;28;20098;-80
2021/10/20 05:50:28;;;;;;;11.43;7.05;;;;;;;14.32;93.62;100435.06;10474463;28;20052;-80
2021/10/20 05:55:29;;;;;;;11.93;6.93;;;;;;;14.10;95.61;100422.22;10457780;28;20057;-81
2021/10/20 06:00:31;;;;;;;10.68;6.72;;;;;;;14.16;94.40;100402.22;10469716;28;20055;-80
2021/10/20 06:05:32;;;;;;;10.75;5.80;;;;;;;14.38;92.67;100407.28;10459826;28;20085;-80
2021/10/20 06:10:35;;;;;;;9.38;6.32;;;;;;;14.24;94.30;100405.66;10457149;28;20055;-80
2021/10/20 06:15:37;;;;;;;7.22;5.53;;;;;;;14.38;93.24;100392.53;10456123;28;20055;-82
2021/10/20 06:20:39;;;;;;;7.28;5.90;;;;;;;14.21;94.48;100397.00;10402987;28;20049;-81
2021/10/20 06:25:41;;;;;;;9.13;5.55;;;;;;;14.22;94.69;100401.31;10456020;28;20102;-80
2021/10/20 06:30:42;;;;;;;7.32;6.50;;;;;;;14.13;95.28;100406.63;10468403;28;20385;-79
2021/10/20 06:35:44;;;;;;;10.63;6.80;;;;;;;14.17;95.08;100383.13;10472051;28;20109;-80
2021/10/20 06:40:45;;;;;;;9.02;6.63;;;;;;;14.30;94.20;100373.53;10470690;28;20056;-81
2021/10/20 06:45:47;;;;;;;8.90;6.50;;;;;;;14.24;94.39;100370.97;10472338;28;20102;-80
2021/10/20 06:50:48;;;;;;;10.35;6.40;;;;;;;14.36;93.80;100373.47;10465675;28;20049;-81
2021/10/20 06:55:50;;;;;;;7.60;5.93;;;;;;;14.44;93.84;100334.34;10469399;28;20091;-80
2021/10/20 07:00:51;;;;;;;8.80;6.22;;;;;;;14.44;93.71;100387.28;10455744;28;20084;-81
2021/10/20 07:05:53;;;;;;;8.25;6.15;;;;;;;14.37;94.99;100405.56;10458452;28;20060;-79
2021/10/20 07:10:55;;;;;;;10.88;5.95;;;;;;;14.26;96.28;100390.88;10476056;28;20496;-79
2021/10/20 07:15:58;;;;;;;8.88;6.18;;;;;;;14.35;96.20;100378.66;10468156;28;20404;-79
2021/10/20 07:21:01;;;;;;;7.50;5.82;;;;;;;14.45;95.84;100349.94;10473343;28;20056;-79
2021/10/20 07:26:03;;;;;;;8.98;6.28;;;;;;;14.58;95.06;100341.19;10466568;28;20049;-80
2021/10/20 07:31:05;;;;;;;8.65;6.20;;;;;;;14.52;96.48;100323.03;10471055;28;20044;-81
2021/10/20 07:36:08;;;;;;;7.45;5.88;;;;;;;14.38;98.29;100291.03;10456124;28;20405;-79
2021/10/20 07:41:09;;;;;;;9.40;5.97;;;;;;;14.54;97.47;100315.22;10472130;28;20052;-82
2021/10/20 07:46:11;;;;;;;12.05;7.22;;;;;;;14.45;99.09;100277.06;10480026;28;20053;-81
2021/10/20 07:51:13;;;;;;;9.93;7.28;;;;;;;14.41;100.00;100249.38;10474184;28;20437;-80
2021/10/20 07:56:14;;;;;;;10.85;7.03;;;;;;;14.46;100.00;100244.94;10470423;28;20041;-80
2021/10/20 08:01:16;;;;;;;7.60;6.50;;;;;;;14.41;100.00;100232.88;10465574;28;20049;-80
2021/10/20 08:06:18;;;;;;;12.02;7.20;;;;;;;14.39;100.00;100214.69;10472303;28;20057;-81
2021/10/20 08:11:19;;;;;;;13.73;8.10;;;;;;;14.33;100.00;100194.78;10458385;28;20527;-80
2021/10/20 08:16:21;;;;;;;9.20;7.40;;;;;;;14.37;100.00;100202.56;10459678;28;20048;-78
2021/10/20 08:21:23;;;;;;;10.75;6.95;;;;;;;14.42;100.00;100213.81;10485729;28;20405;-79
2021/10/20 08:26:24;;;;;;;7.93;6.75;;;;;;;14.50;100.00;100212.00;10478375;28;20045;-80
2021/10/20 08:31:26;;;;;;;8.45;6.65;;;;;;;14.43;100.00;100205.97;10454311;28;20056;-80
2021/10/20 08:36:27;;;;;;;12.68;8.00;;;;;;;14.54;100.00;100192.84;10476587;28;20048;-80
2021/10/20 08:41:30;;;;;;;8.40;7.18;;;;;;;14.62;100.00;100188.41;10450352;28;20554;-79
2021/10/20 08:46:33;;;;;;;20.27;8.27;;;;;;;14.88;100.00;100195.03;10458899;28;20489;-79
2021/10/20 08:51:35;;;;;;;12.88;8.15;;;;;;;15.03;100.00;100190.50;10471508;28;20053;-80
2021/10/20 08:56:36;;;;;;;10.93;7.30;;;;;;;15.10;99.90;100197.31;10465661;28;20052;-79
2021/10/20 09:01:39;;;;;;;12.05;8.48;;;;;;;15.00;100.00;100213.09;10468948;28;20505;-79
2021/10/20 09:06:41;;;;;;;10.85;9.52;;;;;;;14.95;100.00;100207.94;10458013;28;20068;-80
2021/10/20 09:11:43;;;;;;;10.75;8.02;;;;;;;15.01;100.00;100205.25;10458076;28;20055;-79
2021/10/20 09:16:44;;;;;;;10.30;7.60;;;;;;;14.95;100.00;100191.47;10459906;28;20064;-80
2021/10/20 09:21:55;;;;;;;10.55;8.60;;;;;;;15.22;100.00;100185.88;10482151;28;20049;-82
2021/10/20 09:26:58;;;;;;;11.07;8.43;;;;;;;15.18;100.00;100185.94;10451494;28;20060;-80
2021/10/20 09:32:00;;;;;;;9.43;8.25;;;;;;;15.31;100.00;100167.47;10457809;28;20045;-81
2021/10/20 09:37:06;;;;;;;8.05;7.25;;;;;;;15.49;99.67;100168.94;10457451;28;20064;-79
2021/10/20 09:42:12;;;;;;;;;;;;;;;15.49;100.00;100160.25;10456568;28;20505;-80
2021/10/20 09:47:14;;;;;;;8.88;7.80;;;;;;;15.49;100.00;100171.56;10453483;28;19921;-81
2021/10/20 09:52:17;;;;;;;13.70;8.15;;;;;;;15.57;100.00;100169.66;10466915;28;20049;-81
2021/10/20 09:57:29;;;;;;;8.85;7.20;;;;;;;15.82;99.36;100166.66;10457811;28;20049;-80
2021/10/20 10:02:31;;;;;;;13.38;8.38;;;;;;;16.04;98.76;100169.75;10456261;28;20511;-80
2021/10/20 10:07:33;;;;;;;13.32;8.38;;;;;;;16.02;98.26;100164.56;10455590;28;20060;-82
2021/10/20 10:12:35;;;;;;;11.55;8.05;;;;;;;15.91;98.54;100166.50;10438303;28;20045;-81
2021/10/20 10:17:40;;;;;;;12.38;8.40;;;;;;;15.85;99.16;100162.25;10455334;28;20057;-79
2021/10/20 10:22:56;;;;;;;8.60;6.93;;;;;;;15.92;97.07;100164.75;10465953;28;20048;-81
2021/10/20 10:28:23;;;;;;;16.67;8.80;;;;;;;15.74;98.87;100155.50;10459295;28;20068;-79
2021/10/20 10:33:28;;;;;;;8.50;6.72;;;;;;;15.89;96.44;100157.84;10461466;28;20136;-80
2021/10/20 10:38:47;;;;;;;8.30;6.82;;;;;;;15.81;97.74;100157.97;10467117;28;20049;-80
2021/10/20 10:44:13;;;;;;;10.32;6.60;;;;;;;15.90;96.79;100138.69;10482801;28;20435;-81
2021/10/20 10:49:37;;;;;;;7.50;6.35;;;;;;;15.87;96.67;100147.44;10493439;28;20397;-80
2021/10/20 10:54:40;;;;;;;7.80;7.00;;;;;;;15.94;95.94;100135.16;10444219;28;20064;-80
2021/10/20 11:00:14;;;;;;;9.65;6.47;;;;;;;15.91;96.18;100129.97;10459880;28;20053;-81
2021/10/20 11:05:18;;;;;;;8.90;7.60;;;;;;;15.84;97.09;100129.25;10479187;28;20041;-80
2021/10/20 11:10:24;;;;;;;9.73;7.10;;;;;;;16.02;95.44;100125.41;10482855;28;20044;-82
2021/10/20 11:15:27;;;;;;;8.30;6.47;;;;;;;15.95;95.61;100134.25;10481542;28;20067;-81
2021/10/20 11:20:33;;;;;;;7.72;6.93;;;;;;;15.87;96.62;100130.91;10455642;28;20051;-80
2021/10/20 11:25:40;;;;;;;;;;;;;;;15.97;95.88;100129.88;10454902;28;20087;-82
2021/10/20 11:30:42;;;;;;;9.60;7.17;;;;;;;16.00;95.77;100136.78;10465821;28;19920;-82
2021/10/20 11:35:46;;;;;;;10.48;7.22;;;;;;;15.99;96.50;100119.38;10477225;28;20315;-80
2021/10/20 11:40:52;;;;;;;9.35;6.70;;;;;;;16.05;94.82;100125.38;10465008;28;20048;-80
2021/10/20 11:45:54;;;;;;;9.00;7.07;;;;;;;15.95;95.98;100122.97;10458055;28;20057;-81
2021/10/20 11:50:57;;;;;;;11.30;7.05;;;;;;;15.93;96.39;100119.50;10465487;28;20052;-81
2021/10/20 11:56:00;;;;;;;8.30;6.55;;;;;;;15.85;96.78;100120.53;10494797;28;20060;-82
2021/10/20 12:01:07;;;;;;;10.27;6.65;;;;;;;15.87;96.34;100115.25;10492304;28;20055;-80
2021/10/20 12:06:13;;;;;;;7.40;6.45;;;;;;;15.88;96.72;100106.53;10454973;28;20061;-80
2021/10/20 12:11:16;;;;;;;7.90;6.37;;;;;;;16.00;95.77;100088.06;10453218;28;20053;-81
2021/10/20 12:16:20;;;;;;;6.90;6.20;;;;;;;15.98;96.81;100095.06;10461461;28;20052;-82
2021/10/20 12:21:28;;;;;;;8.73;6.90;;;;;;;16.04;97.67;100091.47;10463553;28;20053;-81
2021/10/20 12:26:31;;;;;;;7.78;6.97;;;;;;;15.93;99.19;100078.63;10471099;28;20052;-80
2021/10/20 12:31:33;;;;;;;6.50;5.63;;;;;;;16.13;97.43;100075.63;10469197;28;20377;-79
2021/10/20 12:36:37;;;;;;;7.28;6.50;;;;;;;16.11;97.93;100062.63;10481268;28;20049;-81
2021/10/20 12:41:43;;;;;;;8.27;5.97;;;;;;;16.17;95.94;100048.59;10464948;28;20101;-81
2021/10/20 12:46:49;;;;;;;8.02;5.72;;;;;;;16.13;96.81;100047.78;10460201;28;20076;-82
2021/10/20 12:51:56;;;;;;;10.02;5.57;;;;;;;16.17;96.34;100038.16;10469208;28;20489;-82
2021/10/20 12:57:14;;;;;;;9.20;6.25;;;;;;;16.21;95.83;100033.69;10471468;28;20045;-81
2021/10/20 13:02:16;;;;;;;7.32;5.75;;;;;;;16.20;96.00;100032.84;10482120;28;20087;-80
2021/10/20 13:07:18;;;;;;;8.57;6.07;;;;;;;16.13;96.71;100031.28;10458432;28;20408;-83
2021/10/20 13:12:20;;;;;;;10.40;7.65;;;;;;;15.76;100.00;100033.75;10449033;28;20081;-81
2021/10/20 13:17:22;;;;;;;10.48;7.78;;;;;;;15.45;100.00;100010.84;10474550;28;20048;-83
2021/10/20 13:22:23;;;;;;;9.90;5.97;;;;;;;15.25;100.00;100036.41;10477387;28;20074;-82
2021/10/20 13:27:26;;;;;;;11.60;6.45;;;;;;;15.00;100.00;100057.66;10478964;28;20049;-82
2021/10/20 13:32:30;;;;;;;8.48;3.33;;;;;;;14.66;100.00;100020.00;10461844;28;20044;-82
2021/10/20 13:37:37;;;;;;;6.07;3.10;;;;;;;14.52;100.00;100015.00;10478403;28;20082;-81
2021/10/20 13:42:39;;;;;;;5.85;3.65;;;;;;;14.49;100.00;99996.84;10459014;28;20053;-82
2021/10/20 13:47:42;;;;;;;10.40;4.50;;;;;;;14.56;100.00;99982.84;10458453;28;20152;-83
2021/10/20 13:52:44;;;;;;;8.68;5.07;;;;;;;14.65;100.00;99982.72;10471154;28;20049;-81
2021/10/20 13:57:46;;;;;;;7.95;6.55;;;;;;;14.77;100.00;99990.31;10458067;28;20483;-80
2021/10/20 14:02:51;;;;;;;11.10;7.63;;;;;;;14.88;100.00;99982.34;10463297;28;20540;-81
2021/10/20 14:07:56;;;;;;;12.63;8.43;;;;;;;14.85;100.00;99975.41;10475269;28;20059;-81
2021/10/20 14:12:58;;;;;;;12.40;8.73;;;;;;;14.80;100.00;99986.78;10475903;28;20139;-82
2021/10/20 14:17:59;;;;;;;5.68;4.68;;;;;;;14.58;100.00;99955.91;10480222;28;21098;-82
2021/10/20 14:23:01;;;;;;;8.95;6.63;;;;;;;14.51;100.00;99938.66;10500768;28;20382;-80
2021/10/20 14:28:03;;;;;;;14.57;7.57;;;;;;;14.37;100.00;99940.59;10455193;28;20053;-82
2021/10/20 14:33:05;;;;;;;9.27;5.75;;;;;;;14.38;100.00;99936.25;10456575;28;20064;-82
2021/10/20 14:38:07;;;;;;;10.55;5.57;;;;;;;14.42;100.00;99930.13;10462387;28;20049;-80
2021/10/20 14:43:08;;;;;;;6.07;5.13;;;;;;;14.40;100.00;99937.94;10454815;28;20049;-80
2021/10/20 14:48:11;;;;;;;5.57;4.22;;;;;;;14.43;100.00;99934.44;10456110;28;20053;-79
2021/10/20 14:53:12;;;;;;;7.35;5.25;;;;;;;14.46;100.00;99919.63;10462802;28;20060;-79
2021/10/20 14:58:14;;;;;;;13.25;7.10;;;;;;;14.55;100.00;99911.69;10454364;28;20052;-79
2021/10/20 15:03:15;;;;;;;8.95;6.70;;;;;;;14.76;100.00;99896.63;10490965;28;20052;-81
2021/10/20 15:08:17;;;;;;;14.18;8.60;;;;;;;14.85;100.00;99883.41;10465454;28;20516;-79
2021/10/20 15:13:19;;;;;;;11.32;8.00;;;;;;;14.87;100.00;99878.19;10455565;28;20516;-79
2021/10/20 15:18:22;;;;;;;13.27;8.10;;;;;;;15.00;100.00;99853.63;10454017;28;20523;-80
2021/10/20 15:23:23;;;;;;;9.95;7.97;;;;;;;15.07;100.00;99844.78;10454828;28;20057;-80
2021/10/20 15:28:25;;;;;;;11.25;7.60;;;;;;;15.07;100.00;99844.78;10453578;28;20472;-80
2021/10/20 15:33:27;;;;;;;13.23;7.03;;;;;;;15.01;100.00;99824.94;10458350;28;20049;-79
2021/10/20 15:38:29;;;;;;;12.00;7.68;;;;;;;15.06;100.00;99830.91;10466548;28;20044;-78
2021/10/20 15:43:36;;;;;;;11.30;7.50;;;;;;;15.17;100.00;99817.69;10453294;28;20084;-79
2021/10/20 15:48:38;;;;;;;13.35;6.80;;;;;;;15.08;100.00;99812.63;10458102;28;20041;-79
2021/10/20 15:53:40;;;;;;;11.07;7.68;;;;;;;15.02;100.00;99810.16;10461159;28;20425;-79
2021/10/20 15:58:43;;;;;;;12.40;8.07;;;;;;;14.99;100.00;99805.03;10452600;28;20057;-78
2021/10/20 16:03:45;;;;;;;10.85;9.05;;;;;;;14.91;100.00;99773.91;10466042;28;20448;-79
2021/10/20 16:08:55;;;;;;;15.88;8.95;;;;;;;15.03;100.00;99760.66;10469260;28;20040;-78
2021/10/20 16:13:57;;;;;;;10.18;7.80;;;;;;;15.02;100.00;99782.38;10469747;28;20051;-77
2021/10/20 16:18:59;;;;;;;12.13;7.68;;;;;;;14.96;100.00;99781.63;10465694;28;20055;-79
2021/10/20 16:24:00;;;;;;;8.95;7.38;;;;;;;14.96;100.00;99779.03;10460756;28;20136;-78
2021/10/20 16:29:02;;;;;;;9.15;6.05;;;;;;;14.82;100.00;99774.97;10460245;28;20045;-79
2021/10/20 16:34:07;;;;;;;9.10;5.67;;;;;;;14.88;100.00;99758.38;10468597;28;20056;-78
2021/10/20 16:39:09;;;;;;;12.95;6.13;;;;;;;14.87;100.00;99748.00;10466283;28;20493;-76
2021/10/20 16:44:11;;;;;;;10.18;7.88;;;;;;;14.71;100.00;99726.59;10460507;28;20559;-78
2021/10/20 16:49:13;;;;;;;12.20;7.45;;;;;;;14.96;100.00;99725.19;10469998;28;20048;-79
2021/10/20 16:54:15;;;;;;;11.65;6.68;;;;;;;14.80;100.00;99742.03;10462605;28;20049;-79
2021/10/20 16:59:16;;;;;;;14.00;6.20;;;;;;;14.79;100.00;99741.16;10458905;28;20048;-77
2021/10/20 17:04:18;;;;;;;12.00;7.22;;;;;;;14.66;100.00;99755.31;10466692;28;20417;-78
2021/10/20 17:09:22;;;;;;;12.32;6.63;;;;;;;14.83;100.00;99753.25;10476454;28;20562;-77
2021/10/20 17:14:25;;;;;;;11.45;6.78;;;;;;;14.68;100.00;99742.28;10459386;28;20056;-77
2021/10/20 17:19:30;;;;;;;15.00;7.80;;;;;;;14.74;100.00;99752.56;10494571;28;20058;-77
2021/10/20 17:24:31;;;;;;;9.02;6.53;;;;;;;14.57;100.00;99748.53;10501523;28;20064;-76
2021/10/20 17:29:34;;;;;;;10.68;5.85;;;;;;;14.78;100.00;99741.19;10461671;28;20485;-77
2021/10/20 17:34:38;;;;;;;13.55;6.18;;;;;;;14.82;100.00;99745.47;10458269;28;20080;-77
2021/10/20 17:39:42;;;;;;;8.30;4.78;;;;;;;14.53;100.00;99746.03;10457590;28;20080;-77
2021/10/20 17:45:06;;;;;;;9.98;5.57;;;;;;;14.52;100.00;99749.50;10463637;28;20056;-77
2021/10/20 17:50:09;;;;;;;7.82;4.93;;;;;;;14.51;100.00;99747.81;10480238;28;20044;-77
2021/10/20 17:55:11;;;;;;;7.38;5.65;;;;;;;14.38;100.00;99734.13;10471789;28;20447;-77
2021/10/20 18:00:13;;;;;;;7.63;5.35;;;;;;;14.54;100.00;99738.19;10459454;28;20052;-77
2021/10/20 18:05:16;;;;;;;10.23;6.18;;;;;;;14.46;100.00;99740.03;10453035;28;20057;-78
2021/10/20 18:10:19;;;;;;;9.85;4.88;;;;;;;14.54;100.00;99747.75;10461309;28;20044;-77
2021/10/20 18:15:21;;;;;;;10.35;5.22;;;;;;;14.35;100.00;99725.53;10455897;28;20140;-78
2021/10/20 18:20:23;;;;;;;6.82;5.05;;;;;;;14.27;100.00;99710.06;10437229;28;20048;-77
2021/10/20 18:25:25;;;;;;;7.97;5.00;;;;;;;14.32;100.00;99723.84;10438098;28;20045;-77
2021/10/20 18:30:29;;;;;;;10.65;5.38;;;;;;;14.01;100.00;99707.91;10448463;28;20420;-77
2021/10/20 18:35:32;;;;;;;8.13;5.18;;;;;;;13.96;100.00;99700.22;10445825;28;20049;-77
2021/10/20 18:40:38;;;;;;;9.35;5.10;;;;;;;13.97;100.00;99688.09;10448251;28;20106;-78
2021/10/20 18:45:39;;;;;;;9.98;6.38;;;;;;;14.01;100.00;99688.00;10453315;28;20045;-78
2021/10/20 18:50:41;;;;;;;10.88;6.45;;;;;;;14.00;100.00;99688.88;10457491;28;20464;-77
2021/10/20 18:55:45;;;;;;;13.38;6.95;;;;;;;13.95;100.00;99672.47;10453845;28;20460;-78
2021/10/20 19:00:47;;;;;;;10.57;5.50;;;;;;;13.85;100.00;99665.75;10450157;28;20049;-77
2021/10/20 19:05:49;;;;;;;9.40;5.82;;;;;;;13.95;100.00;99658.63;10453870;28;20056;-76
2021/10/20 19:10:51;;;;;;;12.05;6.28;;;;;;;13.88;100.00;99655.28;10463940;28;20056;-76
2021/10/20 19:15:52;;;;;;;8.57;6.07;;;;;;;13.80;100.00;99649.38;10464421;28;20057;-77
2021/10/20 19:20:54;;;;;;;14.30;7.43;;;;;;;13.75;100.00;99651.19;10495939;28;20049;-77
2021/10/20 19:25:55;;;;;;;12.07;6.20;;;;;;;13.68;100.00;99647.84;10471607;28;20048;-77
2021/10/20 19:30:57;;;;;;;7.60;5.75;;;;;;;13.70;100.00;99630.47;10454947;28;20045;-77
2021/10/20 19:36:00;;;;;;;10.65;5.60;;;;;;;13.69;100.00;99618.38;10453736;28;20052;-77
2021/10/20 19:41:02;;;;;;;15.23;5.97;;;;;;;13.59;100.00;99613.34;10454574;28;20052;-77
2021/10/20 19:46:03;;;;;;;9.95;6.15;;;;;;;13.52;100.00;99597.88;10453791;28;20512;-77
2021/10/20 19:51:05;;;;;;;10.02;6.05;;;;;;;13.43;100.00;99585.03;10460672;28;20049;-77
2021/10/20 19:56:09;;;;;;;8.80;5.97;;;;;;;13.59;100.00;99588.22;10458069;28;20049;-77
2021/10/20 20:01:10;;;;;;;13.57;6.40;;;;;;;13.55;100.00;99575.31;10461002;28;20059;-77
2021/10/20 20:06:12;;;;;;;14.07;6.80;;;;;;;13.48;100.00;99565.03;10460909;28;20045;-77
2021/10/20 20:11:17;;;;;;;10.43;6.50;;;;;;;13.52;100.00;99566.69;10460972;28;20045;-78
2021/10/20 20:16:19;;;;;;;13.98;8.02;;;;;;;13.53;100.00;99552.81;10462035;28;20056;-77
2021/10/20 20:21:22;;;;;;;14.93;8.57;;;;;;;13.63;100.00;99537.91;10459719;28;20103;-78
2021/10/20 20:26:24;;;;;;;11.45;7.90;;;;;;;13.69;100.00;99532.59;10461832;28;20087;-78
2021/10/20 20:31:26;;;;;;;17.48;7.97;;;;;;;13.59;100.00;99520.66;10457582;28;20052;-77
2021/10/20 20:36:27;;;;;;;16.65;6.50;;;;;;;13.60;100.00;99516.31;10458825;28;20049;-79
2021/10/20 20:41:31;;;;;;;12.27;7.70;;;;;;;13.68;100.00;99504.06;10457600;28;20051;-78
2021/10/20 20:46:34;;;;;;;16.30;7.88;;;;;;;13.50;100.00;99500.03;10460672;28;20057;-77
2021/10/20 20:51:36;;;;;;;13.88;5.70;;;;;;;13.47;100.00;99492.31;10467003;28;20045;-77
2021/10/20 20:56:38;;;;;;;8.07;3.60;;;;;;;13.71;100.00;99481.44;10460983;28;20053;-77
2021/10/20 21:01:42;;;;;;;8.90;4.25;;;;;;;13.73;100.00;99458.03;10473104;28;20056;-77
2021/10/20 21:06:49;;;;;;;7.72;4.25;;;;;;;13.66;100.00;99428.69;10458466;28;20140;-79
2021/10/20 21:11:51;;;;;;;8.20;5.13;;;;;;;13.59;100.00;99434.06;10460011;28;20412;-78
2021/10/20 21:16:55;;;;;;;13.68;4.38;;;;;;;13.77;100.00;99428.47;10459723;28;20500;-78
2021/10/20 21:21:57;;;;;;;8.63;4.80;;;;;;;13.62;100.00;99416.66;10459519;28;20059;-78
2021/10/20 21:26:59;;;;;;;9.88;3.92;;;;;;;13.45;100.00;99396.22;10458377;28;20131;-78
2021/10/20 21:32:00;;;;;;;10.45;4.65;;;;;;;13.39;100.00;99365.19;10458314;28;20064;-78
2021/10/20 21:37:02;;;;;;;8.77;5.13;;;;;;;13.25;100.00;99362.84;10458773;28;20382;-77
2021/10/20 21:42:05;;;;;;;9.07;4.25;;;;;;;13.22;100.00;99349.09;10459495;28;20045;-78
2021/10/20 21:47:07;;;;;;;11.73;5.10;;;;;;;13.32;100.00;99332.41;10458583;28;20069;-78
2021/10/20 21:52:35;;;;;;;12.73;5.20;;;;;;;13.13;100.00;99298.16;10465241;28;20394;-78
2021/10/20 21:57:37;;;;;;;7.63;4.75;;;;;;;13.04;100.00;99277.56;10457821;28;20056;-78
2021/10/20 22:02:42;;;;;;;9.43;5.47;;;;;;;13.08;100.00;99262.78;10456986;28;20053;-79
2021/10/20 22:07:44;;;;;;;16.00;8.30;;;;;;;12.97;100.00;99239.63;10457341;28;20547;-79
2021/10/20 22:12:54;;;;;;;14.27;7.07;;;;;;;12.90;100.00;99197.38;10457199;28;20049;-78
2021/10/20 22:17:55;;;;;;;13.43;7.78;;;;;;;12.82;100.00;99188.03;10457360;28;20064;-81
2021/10/20 22:22:57;;;;;;;17.67;8.05;;;;;;;12.76;100.00;99183.84;10458791;28;20401;-81
2021/10/20 22:28:00;;;;;;;11.77;5.47;;;;;;;12.71;100.00;99181.34;10456736;28;20508;-80
2021/10/20 22:33:02;;;;;;;10.50;5.07;;;;;;;12.70;100.00;99158.88;10456774;28;20052;-81
2021/10/20 22:38:05;;;;;;;12.38;6.38;;;;;;;12.64;100.00;99133.06;10455234;28;20053;-81
2021/10/20 22:43:07;;;;;;;10.27;5.72;;;;;;;12.63;100.00;99130.50;10455602;28;20045;-83
2021/10/20 22:48:09;;;;;;;11.43;5.05;;;;;;;12.50;100.00;99066.81;10471853;28;20519;-83
2021/10/20 22:53:11;;;;;;;11.55;4.70;;;;;;;12.49;100.00;99057.34;10459981;28;20049;-83
2021/10/20 22:58:13;;;;;;;10.38;4.72;;;;;;;12.49;100.00;99014.09;10455596;28;20053;-82
2021/10/20 23:03:15;;;;;;;11.48;4.30;;;;;;;12.43;100.00;98955.44;10464961;28;20048;-82